Aviation Digital Data Service (ADDS)

Output produced by METARs form (1721 UTC 21 September 2019)
found at http://aviationweather.gov/metar/data/
 
KHDC 211120Z 2112/2212 VRB03KT P6SM FEW035 FEW110 
     FM211900 11008KT P6SM SCT040 BKN070 
     FM212100 13007KT P6SM FEW030 SCT080 
     FM220500 00000KT P6SM FEW025 FEW200 
     FM220900 00000KT P6SM FEW045 FEW250 
     FM221000 00000KT P6SM SKC